sensor_id;sensor_type;location;lat;lon;timestamp;P1;durP1;ratioP1;P2;durP2;ratioP2
69334;SDS011;56477;52.742;15.242;2024-03-08T00:02:15;56.35;;;19.98;;
69334;SDS011;56477;52.742;15.242;2024-03-08T00:04:41;55.40;;;22.02;;
69334;SDS011;56477;52.742;15.242;2024-03-08T00:07:07;56.47;;;20.17;;
69334;SDS011;56477;52.742;15.242;2024-03-08T00:09:33;51.60;;;20.77;;
69334;SDS011;56477;52.742;15.242;2024-03-08T00:11:59;51.40;;;19.33;;
69334;SDS011;56477;52.742;15.242;2024-03-08T00:14:25;48.27;;;18.40;;
69334;SDS011;56477;52.742;15.242;2024-03-08T00:16:50;51.08;;;18.83;;
69334;SDS011;56477;52.742;15.242;2024-03-08T00:19:19;54.38;;;19.65;;
69334;SDS011;56477;52.742;15.242;2024-03-08T00:21:45;49.80;;;18.07;;
69334;SDS011;56477;52.742;15.242;2024-03-08T00:24:11;44.85;;;16.88;;
69334;SDS011;56477;52.742;15.242;2024-03-08T00:26:37;44.88;;;17.63;;
69334;SDS011;56477;52.742;15.242;2024-03-08T00:29:03;48.13;;;18.63;;
69334;SDS011;56477;52.742;15.242;2024-03-08T00:31:29;48.17;;;19.23;;
69334;SDS011;56477;52.742;15.242;2024-03-08T00:33:56;46.83;;;17.05;;
69334;SDS011;56477;52.742;15.242;2024-03-08T00:36:22;45.30;;;17.45;;
69334;SDS011;56477;52.742;15.242;2024-03-08T00:38:48;49.77;;;17.20;;
69334;SDS011;56477;52.742;15.242;2024-03-08T00:41:14;47.92;;;17.25;;
69334;SDS011;56477;52.742;15.242;2024-03-08T00:43:40;46.10;;;16.08;;
69334;SDS011;56477;52.742;15.242;2024-03-08T00:46:06;47.38;;;18.40;;
69334;SDS011;56477;52.742;15.242;2024-03-08T00:48:32;46.60;;;17.80;;
69334;SDS011;56477;52.742;15.242;2024-03-08T00:50:57;45.53;;;18.33;;
69334;SDS011;56477;52.742;15.242;2024-03-08T00:53:23;48.90;;;18.47;;
69334;SDS011;56477;52.742;15.242;2024-03-08T00:55:49;48.50;;;18.92;;
69334;SDS011;56477;52.742;15.242;2024-03-08T00:58:15;50.20;;;18.23;;
69334;SDS011;56477;52.742;15.242;2024-03-08T01:00:41;51.33;;;19.92;;
69334;SDS011;56477;52.742;15.242;2024-03-08T01:03:06;49.08;;;19.85;;
69334;SDS011;56477;52.742;15.242;2024-03-08T01:05:33;54.57;;;19.10;;
69334;SDS011;56477;52.742;15.242;2024-03-08T01:08:00;55.80;;;20.02;;
69334;SDS011;56477;52.742;15.242;2024-03-08T01:10:28;53.63;;;18.92;;
69334;SDS011;56477;52.742;15.242;2024-03-08T01:12:54;51.17;;;18.92;;
69334;SDS011;56477;52.742;15.242;2024-03-08T01:15:22;50.55;;;18.85;;
69334;SDS011;56477;52.742;15.242;2024-03-08T01:17:48;48.93;;;18.63;;
69334;SDS011;56477;52.742;15.242;2024-03-08T01:20:15;49.80;;;17.33;;
69334;SDS011;56477;52.742;15.242;2024-03-08T01:22:41;55.72;;;19.48;;
69334;SDS011;56477;52.742;15.242;2024-03-08T01:25:07;45.67;;;17.57;;
69334;SDS011;56477;52.742;15.242;2024-03-08T01:27:33;47.42;;;17.40;;
69334;SDS011;56477;52.742;15.242;2024-03-08T01:30:01;54.40;;;18.23;;
69334;SDS011;56477;52.742;15.242;2024-03-08T01:32:26;50.55;;;19.67;;
69334;SDS011;56477;52.742;15.242;2024-03-08T01:34:53;51.88;;;18.08;;
69334;SDS011;56477;52.742;15.242;2024-03-08T01:37:18;58.10;;;19.70;;
69334;SDS011;56477;52.742;15.242;2024-03-08T01:39:45;58.63;;;20.77;;
69334;SDS011;56477;52.742;15.242;2024-03-08T01:42:11;50.73;;;18.57;;
69334;SDS011;56477;52.742;15.242;2024-03-08T01:44:39;50.35;;;18.40;;
69334;SDS011;56477;52.742;15.242;2024-03-08T01:47:04;52.65;;;20.38;;
69334;SDS011;56477;52.742;15.242;2024-03-08T01:49:31;53.13;;;19.33;;
69334;SDS011;56477;52.742;15.242;2024-03-08T01:51:56;54.58;;;19.75;;
69334;SDS011;56477;52.742;15.242;2024-03-08T01:54:23;57.13;;;19.48;;
69334;SDS011;56477;52.742;15.242;2024-03-08T01:56:49;47.38;;;17.85;;
69334;SDS011;56477;52.742;15.242;2024-03-08T01:59:16;54.07;;;19.77;;
69334;SDS011;56477;52.742;15.242;2024-03-08T02:01:42;52.92;;;18.67;;
69334;SDS011;56477;52.742;15.242;2024-03-08T02:04:09;48.75;;;18.55;;
69334;SDS011;56477;52.742;15.242;2024-03-08T02:06:34;48.65;;;17.35;;
69334;SDS011;56477;52.742;15.242;2024-03-08T02:09:00;50.42;;;18.58;;
69334;SDS011;56477;52.742;15.242;2024-03-08T02:11:31;51.60;;;17.70;;
69334;SDS011;56477;52.742;15.242;2024-03-08T02:13:59;49.78;;;18.95;;
69334;SDS011;56477;52.742;15.242;2024-03-08T02:16:25;53.55;;;17.55;;
69334;SDS011;56477;52.742;15.242;2024-03-08T02:18:51;50.53;;;16.67;;
69334;SDS011;56477;52.742;15.242;2024-03-08T02:21:17;48.57;;;17.50;;
69334;SDS011;56477;52.742;15.242;2024-03-08T02:23:44;48.70;;;17.70;;
69334;SDS011;56477;52.742;15.242;2024-03-08T02:26:09;49.00;;;17.10;;
69334;SDS011;56477;52.742;15.242;2024-03-08T02:28:36;48.22;;;18.45;;
69334;SDS011;56477;52.742;15.242;2024-03-08T02:31:02;38.97;;;13.10;;
69334;SDS011;56477;52.742;15.242;2024-03-08T02:33:28;52.80;;;17.17;;
69334;SDS011;56477;52.742;15.242;2024-03-08T02:35:54;44.58;;;18.02;;
69334;SDS011;56477;52.742;15.242;2024-03-08T02:38:21;39.47;;;16.23;;
69334;SDS011;56477;52.742;15.242;2024-03-08T02:40:50;48.97;;;17.03;;
69334;SDS011;56477;52.742;15.242;2024-03-08T02:43:18;47.95;;;16.90;;
69334;SDS011;56477;52.742;15.242;2024-03-08T02:45:45;49.92;;;16.45;;
69334;SDS011;56477;52.742;15.242;2024-03-08T02:48:11;37.47;;;14.45;;
69334;SDS011;56477;52.742;15.242;2024-03-08T02:50:38;44.30;;;16.13;;
69334;SDS011;56477;52.742;15.242;2024-03-08T02:53:06;44.10;;;14.77;;
69334;SDS011;56477;52.742;15.242;2024-03-08T02:55:31;41.60;;;15.27;;
69334;SDS011;56477;52.742;15.242;2024-03-08T02:57:59;40.50;;;16.27;;
69334;SDS011;56477;52.742;15.242;2024-03-08T03:00:24;44.43;;;16.57;;
69334;SDS011;56477;52.742;15.242;2024-03-08T03:02:50;48.25;;;17.50;;
69334;SDS011;56477;52.742;15.242;2024-03-08T03:05:19;39.58;;;15.25;;
69334;SDS011;56477;52.742;15.242;2024-03-08T03:07:49;46.47;;;16.87;;
69334;SDS011;56477;52.742;15.242;2024-03-08T03:10:18;45.42;;;16.67;;
69334;SDS011;56477;52.742;15.242;2024-03-08T03:12:45;45.38;;;16.15;;
69334;SDS011;56477;52.742;15.242;2024-03-08T03:15:11;44.25;;;17.50;;
69334;SDS011;56477;52.742;15.242;2024-03-08T03:17:39;45.47;;;15.77;;
69334;SDS011;56477;52.742;15.242;2024-03-08T03:20:08;45.40;;;16.57;;
69334;SDS011;56477;52.742;15.242;2024-03-08T03:22:38;42.08;;;15.80;;
69334;SDS011;56477;52.742;15.242;2024-03-08T03:25:04;47.97;;;17.60;;
69334;SDS011;56477;52.742;15.242;2024-03-08T03:27:32;40.90;;;16.42;;
69334;SDS011;56477;52.742;15.242;2024-03-08T03:29:58;42.93;;;16.13;;
69334;SDS011;56477;52.742;15.242;2024-03-08T03:32:32;46.55;;;17.30;;
69334;SDS011;56477;52.742;15.242;2024-03-08T03:34:58;42.90;;;16.85;;
69334;SDS011;56477;52.742;15.242;2024-03-08T03:37:24;43.22;;;16.20;;
69334;SDS011;56477;52.742;15.242;2024-03-08T03:39:49;45.50;;;17.27;;
69334;SDS011;56477;52.742;15.242;2024-03-08T03:42:18;49.30;;;17.77;;
69334;SDS011;56477;52.742;15.242;2024-03-08T03:44:47;47.38;;;17.00;;
69334;SDS011;56477;52.742;15.242;2024-03-08T03:47:14;46.28;;;18.25;;
69334;SDS011;56477;52.742;15.242;2024-03-08T03:49:41;47.30;;;17.83;;
69334;SDS011;56477;52.742;15.242;2024-03-08T03:52:07;45.05;;;16.95;;
69334;SDS011;56477;52.742;15.242;2024-03-08T03:54:33;50.25;;;18.55;;
69334;SDS011;56477;52.742;15.242;2024-03-08T03:56:59;44.13;;;17.70;;
69334;SDS011;56477;52.742;15.242;2024-03-08T03:59:26;45.17;;;17.10;;
69334;SDS011;56477;52.742;15.242;2024-03-08T04:01:53;43.58;;;16.52;;
69334;SDS011;56477;52.742;15.242;2024-03-08T04:04:20;43.05;;;16.25;;
69334;SDS011;56477;52.742;15.242;2024-03-08T04:06:46;45.65;;;18.40;;
69334;SDS011;56477;52.742;15.242;2024-03-08T04:09:12;31.83;;;12.20;;
69334;SDS011;56477;52.742;15.242;2024-03-08T04:11:38;45.33;;;17.50;;
69334;SDS011;56477;52.742;15.242;2024-03-08T04:14:04;43.42;;;15.65;;
69334;SDS011;56477;52.742;15.242;2024-03-08T04:16:31;45.47;;;17.48;;
69334;SDS011;56477;52.742;15.242;2024-03-08T04:18:59;43.83;;;16.27;;
69334;SDS011;56477;52.742;15.242;2024-03-08T04:21:29;43.10;;;16.73;;
69334;SDS011;56477;52.742;15.242;2024-03-08T04:23:55;43.88;;;17.88;;
69334;SDS011;56477;52.742;15.242;2024-03-08T04:26:22;46.50;;;16.38;;
69334;SDS011;56477;52.742;15.242;2024-03-08T04:28:48;42.97;;;17.33;;
69334;SDS011;56477;52.742;15.242;2024-03-08T04:31:14;48.60;;;17.53;;
69334;SDS011;56477;52.742;15.242;2024-03-08T04:33:41;48.53;;;17.30;;
69334;SDS011;56477;52.742;15.242;2024-03-08T04:36:07;41.67;;;16.40;;
69334;SDS011;56477;52.742;15.242;2024-03-08T04:38:33;43.00;;;16.50;;
69334;SDS011;56477;52.742;15.242;2024-03-08T04:40:59;51.80;;;17.47;;
69334;SDS011;56477;52.742;15.242;2024-03-08T04:43:27;41.03;;;16.67;;
69334;SDS011;56477;52.742;15.242;2024-03-08T04:45:56;47.83;;;17.08;;
69334;SDS011;56477;52.742;15.242;2024-03-08T04:48:21;45.25;;;17.40;;
69334;SDS011;56477;52.742;15.242;2024-03-08T04:50:47;46.33;;;18.53;;
69334;SDS011;56477;52.742;15.242;2024-03-08T04:53:13;48.92;;;18.85;;
69334;SDS011;56477;52.742;15.242;2024-03-08T04:55:39;52.25;;;18.77;;
69334;SDS011;56477;52.742;15.242;2024-03-08T04:58:05;42.17;;;16.00;;
69334;SDS011;56477;52.742;15.242;2024-03-08T05:00:33;51.90;;;18.23;;
69334;SDS011;56477;52.742;15.242;2024-03-08T05:02:59;54.55;;;19.10;;
69334;SDS011;56477;52.742;15.242;2024-03-08T05:05:25;46.37;;;17.73;;
69334;SDS011;56477;52.742;15.242;2024-03-08T05:07:53;48.55;;;18.42;;
69334;SDS011;56477;52.742;15.242;2024-03-08T05:10:19;50.83;;;18.30;;
69334;SDS011;56477;52.742;15.242;2024-03-08T05:12:45;48.55;;;17.40;;
69334;SDS011;56477;52.742;15.242;2024-03-08T05:15:11;52.57;;;18.97;;
69334;SDS011;56477;52.742;15.242;2024-03-08T05:17:37;52.72;;;20.38;;
69334;SDS011;56477;52.742;15.242;2024-03-08T05:20:03;56.55;;;21.15;;
69334;SDS011;56477;52.742;15.242;2024-03-08T05:22:29;59.97;;;22.23;;
69334;SDS011;56477;52.742;15.242;2024-03-08T05:24:55;58.73;;;22.10;;
69334;SDS011;56477;52.742;15.242;2024-03-08T05:27:21;59.72;;;22.60;;
69334;SDS011;56477;52.742;15.242;2024-03-08T05:29:47;50.05;;;19.35;;
69334;SDS011;56477;52.742;15.242;2024-03-08T05:32:13;55.63;;;19.83;;
69334;SDS011;56477;52.742;15.242;2024-03-08T05:34:39;50.50;;;17.75;;
69334;SDS011;56477;52.742;15.242;2024-03-08T05:37:05;45.80;;;17.70;;
69334;SDS011;56477;52.742;15.242;2024-03-08T05:39:32;44.47;;;17.88;;
69334;SDS011;56477;52.742;15.242;2024-03-08T05:41:58;45.33;;;17.23;;
69334;SDS011;56477;52.742;15.242;2024-03-08T05:44:24;43.03;;;17.17;;
69334;SDS011;56477;52.742;15.242;2024-03-08T05:46:50;48.83;;;17.53;;
69334;SDS011;56477;52.742;15.242;2024-03-08T05:49:16;47.38;;;18.10;;
69334;SDS011;56477;52.742;15.242;2024-03-08T05:51:41;42.27;;;16.53;;
69334;SDS011;56477;52.742;15.242;2024-03-08T05:54:08;49.28;;;17.55;;
69334;SDS011;56477;52.742;15.242;2024-03-08T05:56:38;50.30;;;17.75;;
69334;SDS011;56477;52.742;15.242;2024-03-08T05:59:07;44.17;;;17.45;;
69334;SDS011;56477;52.742;15.242;2024-03-08T06:01:33;51.58;;;18.67;;
69334;SDS011;56477;52.742;15.242;2024-03-08T06:04:02;48.03;;;16.77;;
69334;SDS011;56477;52.742;15.242;2024-03-08T06:06:28;43.00;;;16.88;;
69334;SDS011;56477;52.742;15.242;2024-03-08T06:08:55;48.22;;;16.02;;
69334;SDS011;56477;52.742;15.242;2024-03-08T06:11:24;49.22;;;17.15;;
69334;SDS011;56477;52.742;15.242;2024-03-08T06:13:55;44.40;;;16.98;;
69334;SDS011;56477;52.742;15.242;2024-03-08T06:16:28;42.90;;;16.77;;
69334;SDS011;56477;52.742;15.242;2024-03-08T06:18:57;47.75;;;18.17;;
69334;SDS011;56477;52.742;15.242;2024-03-08T06:21:23;46.28;;;17.30;;
69334;SDS011;56477;52.742;15.242;2024-03-08T06:23:55;48.42;;;18.10;;
69334;SDS011;56477;52.742;15.242;2024-03-08T06:26:23;45.28;;;16.38;;
69334;SDS011;56477;52.742;15.242;2024-03-08T06:28:50;51.50;;;18.27;;
69334;SDS011;56477;52.742;15.242;2024-03-08T06:31:16;44.55;;;16.88;;
69334;SDS011;56477;52.742;15.242;2024-03-08T06:33:42;50.83;;;18.38;;
69334;SDS011;56477;52.742;15.242;2024-03-08T06:36:08;41.27;;;15.57;;
69334;SDS011;56477;52.742;15.242;2024-03-08T06:38:34;42.38;;;17.45;;
69334;SDS011;56477;52.742;15.242;2024-03-08T06:41:00;45.05;;;18.00;;
69334;SDS011;56477;52.742;15.242;2024-03-08T06:43:29;43.22;;;17.10;;
69334;SDS011;56477;52.742;15.242;2024-03-08T06:45:59;42.13;;;17.27;;
69334;SDS011;56477;52.742;15.242;2024-03-08T06:48:25;39.73;;;16.93;;
69334;SDS011;56477;52.742;15.242;2024-03-08T06:50:51;44.22;;;17.55;;
69334;SDS011;56477;52.742;15.242;2024-03-08T06:53:17;41.33;;;17.23;;
69334;SDS011;56477;52.742;15.242;2024-03-08T06:55:44;43.03;;;16.77;;
69334;SDS011;56477;52.742;15.242;2024-03-08T06:58:10;55.10;;;19.45;;
69334;SDS011;56477;52.742;15.242;2024-03-08T07:00:36;42.08;;;17.75;;
69334;SDS011;56477;52.742;15.242;2024-03-08T07:03:02;43.08;;;18.42;;
69334;SDS011;56477;52.742;15.242;2024-03-08T07:05:29;39.20;;;16.80;;
69334;SDS011;56477;52.742;15.242;2024-03-08T07:07:55;31.53;;;14.50;;
69334;SDS011;56477;52.742;15.242;2024-03-08T07:10:22;37.03;;;15.32;;
69334;SDS011;56477;52.742;15.242;2024-03-08T07:12:52;33.47;;;14.20;;
69334;SDS011;56477;52.742;15.242;2024-03-08T07:15:21;33.03;;;14.48;;
69334;SDS011;56477;52.742;15.242;2024-03-08T07:17:48;36.58;;;15.93;;
69334;SDS011;56477;52.742;15.242;2024-03-08T07:20:15;36.77;;;15.90;;
69334;SDS011;56477;52.742;15.242;2024-03-08T07:22:47;32.70;;;15.68;;
69334;SDS011;56477;52.742;15.242;2024-03-08T07:25:14;36.35;;;14.82;;
69334;SDS011;56477;52.742;15.242;2024-03-08T07:27:50;38.88;;;18.40;;
69334;SDS011;56477;52.742;15.242;2024-03-08T07:30:18;36.83;;;15.90;;
69334;SDS011;56477;52.742;15.242;2024-03-08T07:33:04;35.00;;;15.90;;
69334;SDS011;56477;52.742;15.242;2024-03-08T07:35:32;41.50;;;15.80;;
69334;SDS011;56477;52.742;15.242;2024-03-08T07:37:58;32.70;;;14.65;;
69334;SDS011;56477;52.742;15.242;2024-03-08T07:40:25;35.08;;;15.90;;
69334;SDS011;56477;52.742;15.242;2024-03-08T07:42:51;34.97;;;14.25;;
69334;SDS011;56477;52.742;15.242;2024-03-08T07:45:17;36.60;;;16.30;;
69334;SDS011;56477;52.742;15.242;2024-03-08T07:47:43;35.80;;;15.55;;
69334;SDS011;56477;52.742;15.242;2024-03-08T07:50:09;35.17;;;15.85;;
69334;SDS011;56477;52.742;15.242;2024-03-08T07:52:35;32.40;;;15.17;;
69334;SDS011;56477;52.742;15.242;2024-03-08T07:55:04;37.30;;;16.23;;
69334;SDS011;56477;52.742;15.242;2024-03-08T07:57:31;38.72;;;16.52;;
69334;SDS011;56477;52.742;15.242;2024-03-08T07:59:57;32.83;;;15.90;;
69334;SDS011;56477;52.742;15.242;2024-03-08T08:02:23;36.05;;;16.58;;
69334;SDS011;56477;52.742;15.242;2024-03-08T08:04:49;35.63;;;15.73;;
69334;SDS011;56477;52.742;15.242;2024-03-08T08:07:15;38.22;;;17.75;;
69334;SDS011;56477;52.742;15.242;2024-03-08T08:09:41;31.20;;;14.95;;
69334;SDS011;56477;52.742;15.242;2024-03-08T08:12:08;34.20;;;15.80;;
69334;SDS011;56477;52.742;15.242;2024-03-08T08:14:37;32.20;;;15.48;;
69334;SDS011;56477;52.742;15.242;2024-03-08T08:17:04;39.28;;;16.95;;
69334;SDS011;56477;52.742;15.242;2024-03-08T08:19:30;33.72;;;15.70;;
69334;SDS011;56477;52.742;15.242;2024-03-08T08:21:57;36.00;;;15.77;;
69334;SDS011;56477;52.742;15.242;2024-03-08T08:24:23;32.57;;;15.40;;
69334;SDS011;56477;52.742;15.242;2024-03-08T08:26:49;33.25;;;15.50;;
69334;SDS011;56477;52.742;15.242;2024-03-08T08:29:15;36.30;;;16.42;;
69334;SDS011;56477;52.742;15.242;2024-03-08T08:31:41;30.45;;;15.70;;
69334;SDS011;56477;52.742;15.242;2024-03-08T08:34:11;34.00;;;16.20;;
69334;SDS011;56477;52.742;15.242;2024-03-08T08:36:37;32.63;;;15.20;;
69334;SDS011;56477;52.742;15.242;2024-03-08T08:39:04;33.58;;;16.40;;
69334;SDS011;56477;52.742;15.242;2024-03-08T08:41:37;36.25;;;15.80;;
69334;SDS011;56477;52.742;15.242;2024-03-08T08:44:03;34.03;;;15.02;;
69334;SDS011;56477;52.742;15.242;2024-03-08T08:46:29;34.30;;;17.07;;
69334;SDS011;56477;52.742;15.242;2024-03-08T08:48:55;35.78;;;15.68;;
69334;SDS011;56477;52.742;15.242;2024-03-08T08:51:21;27.92;;;12.88;;
69334;SDS011;56477;52.742;15.242;2024-03-08T08:53:48;32.47;;;15.57;;
69334;SDS011;56477;52.742;15.242;2024-03-08T08:56:14;33.53;;;15.93;;
69334;SDS011;56477;52.742;15.242;2024-03-08T08:58:44;33.00;;;14.98;;
69334;SDS011;56477;52.742;15.242;2024-03-08T09:01:10;32.83;;;15.82;;
69334;SDS011;56477;52.742;15.242;2024-03-08T09:03:40;37.72;;;15.38;;
69334;SDS011;56477;52.742;15.242;2024-03-08T09:06:06;35.93;;;14.47;;
69334;SDS011;56477;52.742;15.242;2024-03-08T09:08:36;34.53;;;15.63;;
69334;SDS011;56477;52.742;15.242;2024-03-08T09:11:03;28.33;;;13.43;;
69334;SDS011;56477;52.742;15.242;2024-03-08T09:13:29;30.95;;;14.27;;
69334;SDS011;56477;52.742;15.242;2024-03-08T09:15:56;27.52;;;13.60;;
69334;SDS011;56477;52.742;15.242;2024-03-08T09:18:22;33.43;;;14.97;;
69334;SDS011;56477;52.742;15.242;2024-03-08T09:20:49;30.60;;;13.43;;
69334;SDS011;56477;52.742;15.242;2024-03-08T09:23:19;33.30;;;15.63;;
69334;SDS011;56477;52.742;15.242;2024-03-08T09:25:45;33.80;;;14.30;;
69334;SDS011;56477;52.742;15.242;2024-03-08T09:28:12;33.05;;;15.20;;
69334;SDS011;56477;52.742;15.242;2024-03-08T09:30:38;34.60;;;14.50;;
69334;SDS011;56477;52.742;15.242;2024-03-08T09:33:05;31.50;;;14.88;;
69334;SDS011;56477;52.742;15.242;2024-03-08T09:35:31;32.42;;;15.13;;
69334;SDS011;56477;52.742;15.242;2024-03-08T09:37:57;34.75;;;13.00;;
69334;SDS011;56477;52.742;15.242;2024-03-08T09:40:23;33.23;;;15.37;;
69334;SDS011;56477;52.742;15.242;2024-03-08T09:42:51;34.80;;;14.73;;
69334;SDS011;56477;52.742;15.242;2024-03-08T09:45:17;34.38;;;15.77;;
69334;SDS011;56477;52.742;15.242;2024-03-08T09:47:47;26.10;;;12.15;;
69334;SDS011;56477;52.742;15.242;2024-03-08T09:50:17;34.88;;;14.05;;
69334;SDS011;56477;52.742;15.242;2024-03-08T09:52:46;32.70;;;13.50;;
69334;SDS011;56477;52.742;15.242;2024-03-08T09:55:14;30.00;;;13.32;;
69334;SDS011;56477;52.742;15.242;2024-03-08T09:57:43;33.67;;;12.70;;
69334;SDS011;56477;52.742;15.242;2024-03-08T10:00:29;28.95;;;13.23;;
69334;SDS011;56477;52.742;15.242;2024-03-08T10:03:00;27.73;;;13.20;;
69334;SDS011;56477;52.742;15.242;2024-03-08T10:05:27;29.10;;;13.03;;
69334;SDS011;56477;52.742;15.242;2024-03-08T10:07:56;25.35;;;12.48;;
69334;SDS011;56477;52.742;15.242;2024-03-08T10:10:22;33.10;;;13.30;;
69334;SDS011;56477;52.742;15.242;2024-03-08T10:12:48;26.95;;;12.15;;
69334;SDS011;56477;52.742;15.242;2024-03-08T10:15:15;34.00;;;12.63;;
69334;SDS011;56477;52.742;15.242;2024-03-08T10:17:45;28.77;;;13.30;;
69334;SDS011;56477;52.742;15.242;2024-03-08T10:20:14;27.48;;;12.45;;
69334;SDS011;56477;52.742;15.242;2024-03-08T10:22:43;27.38;;;12.10;;
69334;SDS011;56477;52.742;15.242;2024-03-08T10:25:12;29.38;;;12.45;;
69334;SDS011;56477;52.742;15.242;2024-03-08T10:27:38;29.03;;;13.00;;
69334;SDS011;56477;52.742;15.242;2024-03-08T10:30:12;28.35;;;13.75;;
69334;SDS011;56477;52.742;15.242;2024-03-08T10:32:40;27.67;;;12.80;;
69334;SDS011;56477;52.742;15.242;2024-03-08T10:35:07;23.00;;;10.93;;
69334;SDS011;56477;52.742;15.242;2024-03-08T10:37:44;29.10;;;12.52;;
69334;SDS011;56477;52.742;15.242;2024-03-08T10:40:18;24.13;;;11.17;;
69334;SDS011;56477;52.742;15.242;2024-03-08T10:42:52;24.80;;;11.30;;
69334;SDS011;56477;52.742;15.242;2024-03-08T10:45:38;28.50;;;12.88;;
69334;SDS011;56477;52.742;15.242;2024-03-08T10:48:10;23.63;;;11.88;;
69334;SDS011;56477;52.742;15.242;2024-03-08T10:50:45;28.17;;;11.55;;
69334;SDS011;56477;52.742;15.242;2024-03-08T10:53:14;24.63;;;10.07;;
69334;SDS011;56477;52.742;15.242;2024-03-08T10:55:40;23.33;;;10.27;;
69334;SDS011;56477;52.742;15.242;2024-03-08T10:58:08;21.40;;;9.82;;
69334;SDS011;56477;52.742;15.242;2024-03-08T11:00:34;19.73;;;8.27;;
69334;SDS011;56477;52.742;15.242;2024-03-08T11:03:01;21.33;;;9.83;;
69334;SDS011;56477;52.742;15.242;2024-03-08T11:05:38;20.85;;;9.02;;
69334;SDS011;56477;52.742;15.242;2024-03-08T11:08:05;21.30;;;9.57;;
69334;SDS011;56477;52.742;15.242;2024-03-08T11:10:50;22.33;;;9.65;;
69334;SDS011;56477;52.742;15.242;2024-03-08T11:13:34;20.63;;;9.65;;
69334;SDS011;56477;52.742;15.242;2024-03-08T11:18:53;19.23;;;8.13;;
69334;SDS011;56477;52.742;15.242;2024-03-08T11:21:19;23.58;;;9.82;;
69334;SDS011;56477;52.742;15.242;2024-03-08T11:24:01;19.98;;;10.27;;
69334;SDS011;56477;52.742;15.242;2024-03-08T11:26:33;22.90;;;10.52;;
69334;SDS011;56477;52.742;15.242;2024-03-08T11:29:32;22.50;;;9.03;;
69334;SDS011;56477;52.742;15.242;2024-03-08T11:34:35;19.20;;;8.80;;
69334;SDS011;56477;52.742;15.242;2024-03-08T11:37:03;22.92;;;10.75;;
69334;SDS011;56477;52.742;15.242;2024-03-08T11:39:30;21.83;;;10.20;;
69334;SDS011;56477;52.742;15.242;2024-03-08T11:41:56;23.58;;;10.13;;
69334;SDS011;56477;52.742;15.242;2024-03-08T11:44:24;24.80;;;11.43;;
69334;SDS011;56477;52.742;15.242;2024-03-08T11:46:52;21.55;;;9.50;;
69334;SDS011;56477;52.742;15.242;2024-03-08T11:49:19;21.85;;;10.10;;
69334;SDS011;56477;52.742;15.242;2024-03-08T11:51:45;22.97;;;9.90;;
69334;SDS011;56477;52.742;15.242;2024-03-08T11:54:12;23.48;;;9.57;;
69334;SDS011;56477;52.742;15.242;2024-03-08T11:56:38;17.23;;;8.65;;
69334;SDS011;56477;52.742;15.242;2024-03-08T11:59:04;20.30;;;10.40;;
69334;SDS011;56477;52.742;15.242;2024-03-08T12:01:30;20.02;;;9.65;;
69334;SDS011;56477;52.742;15.242;2024-03-08T12:03:57;21.10;;;10.40;;
69334;SDS011;56477;52.742;15.242;2024-03-08T12:06:26;23.63;;;9.18;;
69334;SDS011;56477;52.742;15.242;2024-03-08T12:09:02;23.42;;;10.00;;
69334;SDS011;56477;52.742;15.242;2024-03-08T12:11:28;20.17;;;7.45;;
69334;SDS011;56477;52.742;15.242;2024-03-08T12:13:54;21.73;;;9.57;;
69334;SDS011;56477;52.742;15.242;2024-03-08T12:16:20;20.65;;;9.32;;
69334;SDS011;56477;52.742;15.242;2024-03-08T12:18:50;17.48;;;8.32;;
69334;SDS011;56477;52.742;15.242;2024-03-08T12:21:17;20.93;;;8.57;;
69334;SDS011;56477;52.742;15.242;2024-03-08T12:23:46;20.52;;;9.35;;
69334;SDS011;56477;52.742;15.242;2024-03-08T12:26:23;19.67;;;8.60;;
69334;SDS011;56477;52.742;15.242;2024-03-08T12:28:51;17.23;;;8.00;;
69334;SDS011;56477;52.742;15.242;2024-03-08T12:31:17;14.80;;;7.32;;
69334;SDS011;56477;52.742;15.242;2024-03-08T12:36:15;20.52;;;8.57;;
69334;SDS011;56477;52.742;15.242;2024-03-08T12:38:48;17.52;;;8.10;;
69334;SDS011;56477;52.742;15.242;2024-03-08T12:41:15;16.65;;;6.97;;
69334;SDS011;56477;52.742;15.242;2024-03-08T12:43:45;17.75;;;8.57;;
69334;SDS011;56477;52.742;15.242;2024-03-08T12:46:17;18.20;;;8.37;;
69334;SDS011;56477;52.742;15.242;2024-03-08T12:48:46;14.02;;;6.72;;
69334;SDS011;56477;52.742;15.242;2024-03-08T12:51:18;17.67;;;8.40;;
69334;SDS011;56477;52.742;15.242;2024-03-08T12:53:45;16.40;;;8.10;;
69334;SDS011;56477;52.742;15.242;2024-03-08T12:56:28;16.58;;;7.55;;
69334;SDS011;56477;52.742;15.242;2024-03-08T12:58:56;14.83;;;7.23;;
69334;SDS011;56477;52.742;15.242;2024-03-08T13:01:22;17.83;;;7.60;;
69334;SDS011;56477;52.742;15.242;2024-03-08T13:03:48;18.00;;;8.85;;
69334;SDS011;56477;52.742;15.242;2024-03-08T13:06:15;14.70;;;6.47;;
69334;SDS011;56477;52.742;15.242;2024-03-08T13:08:41;15.83;;;8.27;;
69334;SDS011;56477;52.742;15.242;2024-03-08T13:11:09;18.05;;;8.35;;
69334;SDS011;56477;52.742;15.242;2024-03-08T13:13:40;13.68;;;6.85;;
69334;SDS011;56477;52.742;15.242;2024-03-08T13:16:06;18.55;;;9.43;;
69334;SDS011;56477;52.742;15.242;2024-03-08T13:18:36;19.10;;;9.00;;
69334;SDS011;56477;52.742;15.242;2024-03-08T13:21:02;19.53;;;8.77;;
69334;SDS011;56477;52.742;15.242;2024-03-08T13:23:33;14.55;;;7.10;;
69334;SDS011;56477;52.742;15.242;2024-03-08T13:26:06;16.00;;;7.38;;
69334;SDS011;56477;52.742;15.242;2024-03-08T13:28:45;17.30;;;8.02;;
69334;SDS011;56477;52.742;15.242;2024-03-08T13:31:11;15.90;;;8.75;;
69334;SDS011;56477;52.742;15.242;2024-03-08T13:33:40;16.97;;;8.23;;
69334;SDS011;56477;52.742;15.242;2024-03-08T13:36:12;19.27;;;8.43;;
69334;SDS011;56477;52.742;15.242;2024-03-08T13:38:47;17.27;;;8.40;;
69334;SDS011;56477;52.742;15.242;2024-03-08T13:41:14;16.60;;;7.97;;
69334;SDS011;56477;52.742;15.242;2024-03-08T13:43:45;17.08;;;8.55;;
69334;SDS011;56477;52.742;15.242;2024-03-08T13:46:12;16.37;;;8.60;;
69334;SDS011;56477;52.742;15.242;2024-03-08T13:48:38;17.25;;;9.05;;
69334;SDS011;56477;52.742;15.242;2024-03-08T13:51:04;15.80;;;7.97;;
69334;SDS011;56477;52.742;15.242;2024-03-08T13:53:32;16.05;;;8.27;;
69334;SDS011;56477;52.742;15.242;2024-03-08T13:56:01;13.87;;;7.47;;
69334;SDS011;56477;52.742;15.242;2024-03-08T13:58:28;16.80;;;8.25;;
69334;SDS011;56477;52.742;15.242;2024-03-08T14:00:54;15.38;;;7.90;;
69334;SDS011;56477;52.742;15.242;2024-03-08T14:03:21;17.55;;;7.75;;
69334;SDS011;56477;52.742;15.242;2024-03-08T14:05:47;17.33;;;8.83;;
69334;SDS011;56477;52.742;15.242;2024-03-08T14:08:13;16.10;;;7.50;;
69334;SDS011;56477;52.742;15.242;2024-03-08T14:10:39;16.83;;;8.07;;
69334;SDS011;56477;52.742;15.242;2024-03-08T14:13:06;16.40;;;8.38;;
69334;SDS011;56477;52.742;15.242;2024-03-08T14:15:32;13.63;;;6.87;;
69334;SDS011;56477;52.742;15.242;2024-03-08T14:17:59;18.27;;;8.32;;
69334;SDS011;56477;52.742;15.242;2024-03-08T14:20:25;18.10;;;8.70;;
69334;SDS011;56477;52.742;15.242;2024-03-08T14:22:54;16.80;;;8.68;;